sensor_id;sensor_type;location;lat;lon;timestamp;pressure;altitude;pressure_sealevel;temperature;humidity
13068;BME280;6600;51.362;6.686;2023-05-22T00:00:06;100932.59;;;18.73;100.00
13068;BME280;6600;51.362;6.686;2023-05-22T00:02:33;100935.56;;;18.72;100.00
13068;BME280;6600;51.362;6.686;2023-05-22T00:05:05;100933.94;;;18.76;100.00
13068;BME280;6600;51.362;6.686;2023-05-22T00:07:31;100932.63;;;18.78;100.00
13068;BME280;6600;51.362;6.686;2023-05-22T00:09:56;100938.59;;;18.80;100.00
13068;BME280;6600;51.362;6.686;2023-05-22T00:12:21;100932.88;;;18.77;100.00
13068;BME280;6600;51.362;6.686;2023-05-22T00:14:47;100934.50;;;18.78;100.00
13068;BME280;6600;51.362;6.686;2023-05-22T00:17:12;100941.59;;;18.79;100.00
13068;BME280;6600;51.362;6.686;2023-05-22T00:19:39;100941.00;;;18.77;100.00
13068;BME280;6600;51.362;6.686;2023-05-22T00:22:04;100942.09;;;18.76;100.00
13068;BME280;6600;51.362;6.686;2023-05-22T00:24:29;100936.38;;;18.72;100.00
13068;BME280;6600;51.362;6.686;2023-05-22T00:26:56;100933.34;;;18.63;100.00
13068;BME280;6600;51.362;6.686;2023-05-22T00:29:21;100938.19;;;18.56;100.00
13068;BME280;6600;51.362;6.686;2023-05-22T00:31:47;100936.56;;;18.55;100.00
13068;BME280;6600;51.362;6.686;2023-05-22T00:34:12;100934.94;;;18.54;100.00
13068;BME280;6600;51.362;6.686;2023-05-22T00:36:37;100939.00;;;18.57;100.00
13068;BME280;6600;51.362;6.686;2023-05-22T00:39:03;100938.19;;;18.56;100.00
13068;BME280;6600;51.362;6.686;2023-05-22T00:41:29;100931.13;;;18.55;100.00
13068;BME280;6600;51.362;6.686;2023-05-22T00:43:58;100937.66;;;18.54;100.00
13068;BME280;6600;51.362;6.686;2023-05-22T00:46:23;100921.63;;;18.53;100.00
13068;BME280;6600;51.362;6.686;2023-05-22T00:48:49;100930.00;;;18.51;100.00
13068;BME280;6600;51.362;6.686;2023-05-22T00:51:17;100924.28;;;18.48;100.00
13068;BME280;6600;51.362;6.686;2023-05-22T00:53:45;100928.91;;;18.47;100.00
13068;BME280;6600;51.362;6.686;2023-05-22T00:56:11;100934.31;;;18.47;100.00
13068;BME280;6600;51.362;6.686;2023-05-22T00:58:37;100931.03;;;18.45;100.00
13068;BME280;6600;51.362;6.686;2023-05-22T01:01:02;100928.84;;;18.42;100.00
13068;BME280;6600;51.362;6.686;2023-05-22T01:03:29;100923.94;;;18.39;100.00
13068;BME280;6600;51.362;6.686;2023-05-22T01:05:56;100917.97;;;18.37;100.00
13068;BME280;6600;51.362;6.686;2023-05-22T01:08:21;100918.47;;;18.34;100.00
13068;BME280;6600;51.362;6.686;2023-05-22T01:10:51;100915.75;;;18.34;100.00
13068;BME280;6600;51.362;6.686;2023-05-22T01:21:36;100919.59;;;18.33;100.00
13068;BME280;6600;51.362;6.686;2023-05-22T01:24:13;100908.72;;;18.33;100.00
13068;BME280;6600;51.362;6.686;2023-05-22T01:32:01;100916.81;;;18.28;100.00
13068;BME280;6600;51.362;6.686;2023-05-22T01:34:27;100924.66;;;18.25;100.00
13068;BME280;6600;51.362;6.686;2023-05-22T01:36:55;100918.41;;;18.24;100.00
13068;BME280;6600;51.362;6.686;2023-05-22T01:39:21;100917.63;;;18.24;100.00
13068;BME280;6600;51.362;6.686;2023-05-22T01:41:47;100916.81;;;18.23;100.00
13068;BME280;6600;51.362;6.686;2023-05-22T01:44:13;100928.47;;;18.24;100.00
13068;BME280;6600;51.362;6.686;2023-05-22T01:46:38;100936.31;;;18.20;100.00
13068;BME280;6600;51.362;6.686;2023-05-22T01:49:05;100928.66;;;18.17;100.00
13068;BME280;6600;51.362;6.686;2023-05-22T01:54:58;100928.38;;;18.13;100.00
13068;BME280;6600;51.362;6.686;2023-05-22T01:57:12;100923.78;;;18.14;100.00
13068;BME280;6600;51.362;6.686;2023-05-22T01:59:47;100922.69;;;18.10;100.00
13068;BME280;6600;51.362;6.686;2023-05-22T02:02:16;100921.03;;;18.09;100.00
13068;BME280;6600;51.362;6.686;2023-05-22T02:04:51;100920.44;;;18.02;100.00
13068;BME280;6600;51.362;6.686;2023-05-22T02:07:21;100909.50;;;17.92;100.00
13068;BME280;6600;51.362;6.686;2023-05-22T02:09:49;100911.66;;;17.90;100.00
13068;BME280;6600;51.362;6.686;2023-05-22T02:12:15;100920.31;;;17.87;100.00
13068;BME280;6600;51.362;6.686;2023-05-22T02:14:42;100912.69;;;17.84;100.00
13068;BME280;6600;51.362;6.686;2023-05-22T02:17:07;100915.88;;;17.76;100.00
13068;BME280;6600;51.362;6.686;2023-05-22T02:19:34;100903.94;;;17.72;100.00
13068;BME280;6600;51.362;6.686;2023-05-22T02:22:00;100906.88;;;17.70;100.00
13068;BME280;6600;51.362;6.686;2023-05-22T02:24:25;100906.56;;;17.66;100.00
13068;BME280;6600;51.362;6.686;2023-05-22T02:26:50;100902.19;;;17.60;100.00
13068;BME280;6600;51.362;6.686;2023-05-22T02:29:16;100905.97;;;17.59;100.00
13068;BME280;6600;51.362;6.686;2023-05-22T02:31:41;100903.53;;;17.58;100.00
13068;BME280;6600;51.362;6.686;2023-05-22T02:34:06;100892.59;;;17.53;100.00
13068;BME280;6600;51.362;6.686;2023-05-22T02:36:32;100899.91;;;17.52;100.00
13068;BME280;6600;51.362;6.686;2023-05-22T02:38:58;100904.19;;;17.48;100.00
13068;BME280;6600;51.362;6.686;2023-05-22T02:41:23;100899.81;;;17.42;100.00
13068;BME280;6600;51.362;6.686;2023-05-22T02:43:49;100895.22;;;17.43;100.00
13068;BME280;6600;51.362;6.686;2023-05-22T02:46:14;100900.34;;;17.39;100.00
13068;BME280;6600;51.362;6.686;2023-05-22T02:48:40;100890.88;;;17.42;100.00
13068;BME280;6600;51.362;6.686;2023-05-22T02:51:06;100901.97;;;17.40;100.00
13068;BME280;6600;51.362;6.686;2023-05-22T02:53:32;100900.25;;;17.34;100.00
13068;BME280;6600;51.362;6.686;2023-05-22T02:55:59;100900.53;;;17.33;100.00
13068;BME280;6600;51.362;6.686;2023-05-22T02:58:25;100901.88;;;17.30;100.00
13068;BME280;6600;51.362;6.686;2023-05-22T03:00:51;100898.59;;;17.28;100.00
13068;BME280;6600;51.362;6.686;2023-05-22T03:03:17;100889.63;;;17.28;100.00
13068;BME280;6600;51.362;6.686;2023-05-22T03:05:43;100887.97;;;17.22;100.00
13068;BME280;6600;51.362;6.686;2023-05-22T03:08:10;100893.06;;;17.18;100.00
13068;BME280;6600;51.362;6.686;2023-05-22T03:10:35;100892.50;;;17.16;100.00
13068;BME280;6600;51.362;6.686;2023-05-22T03:13:01;100896.84;;;17.17;100.00
13068;BME280;6600;51.362;6.686;2023-05-22T03:15:26;100893.56;;;17.15;100.00
13068;BME280;6600;51.362;6.686;2023-05-22T03:17:51;100895.41;;;17.09;100.00
13068;BME280;6600;51.362;6.686;2023-05-22T03:20:16;100895.41;;;17.09;100.00
13068;BME280;6600;51.362;6.686;2023-05-22T03:22:43;100891.91;;;17.09;100.00
13068;BME280;6600;51.362;6.686;2023-05-22T03:25:08;100889.69;;;17.06;100.00
13068;BME280;6600;51.362;6.686;2023-05-22T03:27:34;100890.69;;;17.00;100.00
13068;BME280;6600;51.362;6.686;2023-05-22T03:30:02;100891.19;;;16.97;100.00
13068;BME280;6600;51.362;6.686;2023-05-22T03:32:28;100906.63;;;16.96;100.00
13068;BME280;6600;51.362;6.686;2023-05-22T03:34:53;100897.94;;;16.94;100.00
13068;BME280;6600;51.362;6.686;2023-05-22T03:37:19;100897.63;;;16.91;100.00
13068;BME280;6600;51.362;6.686;2023-05-22T03:39:44;100897.06;;;16.89;100.00
13068;BME280;6600;51.362;6.686;2023-05-22T03:42:10;100896.50;;;16.87;100.00
13068;BME280;6600;51.362;6.686;2023-05-22T03:44:37;100893.75;;;16.82;100.00
13068;BME280;6600;51.362;6.686;2023-05-22T03:47:02;100895.03;;;16.79;100.00
13068;BME280;6600;51.362;6.686;2023-05-22T03:49:28;100891.28;;;16.80;100.00
13068;BME280;6600;51.362;6.686;2023-05-22T03:51:53;100897.75;;;16.79;100.00
13068;BME280;6600;51.362;6.686;2023-05-22T03:54:18;100901.78;;;16.77;100.00
13068;BME280;6600;51.362;6.686;2023-05-22T03:56:44;100896.38;;;16.77;100.00
13068;BME280;6600;51.362;6.686;2023-05-22T03:59:09;100892.59;;;16.78;100.00
13068;BME280;6600;51.362;6.686;2023-05-22T04:01:34;100898.06;;;16.83;100.00
13068;BME280;6600;51.362;6.686;2023-05-22T04:04:04;100890.75;;;16.83;100.00
13068;BME280;6600;51.362;6.686;2023-05-22T04:06:30;100895.94;;;16.85;100.00
13068;BME280;6600;51.362;6.686;2023-05-22T04:08:57;100891.91;;;16.87;100.00
13068;BME280;6600;51.362;6.686;2023-05-22T04:11:22;100891.41;;;16.90;100.00
13068;BME280;6600;51.362;6.686;2023-05-22T04:13:48;100894.69;;;16.92;100.00
13068;BME280;6600;51.362;6.686;2023-05-22T04:16:14;100902.53;;;16.94;100.00
13068;BME280;6600;51.362;6.686;2023-05-22T04:18:41;100896.88;;;16.95;100.00
13068;BME280;6600;51.362;6.686;2023-05-22T04:21:06;100896.59;;;16.97;100.00
13068;BME280;6600;51.362;6.686;2023-05-22T04:23:34;100894.81;;;17.02;100.00
13068;BME280;6600;51.362;6.686;2023-05-22T04:25:59;100899.69;;;17.05;100.00
13068;BME280;6600;51.362;6.686;2023-05-22T04:28:27;100898.38;;;17.08;100.00
13068;BME280;6600;51.362;6.686;2023-05-22T04:30:57;100902.44;;;17.10;100.00
13068;BME280;6600;51.362;6.686;2023-05-22T04:33:22;100908.19;;;17.14;100.00
13068;BME280;6600;51.362;6.686;2023-05-22T04:35:50;100913.41;;;17.21;100.00
13068;BME280;6600;51.362;6.686;2023-05-22T04:38:16;100913.22;;;17.27;100.00
13068;BME280;6600;51.362;6.686;2023-05-22T04:40:42;100912.44;;;17.32;100.00
13068;BME280;6600;51.362;6.686;2023-05-22T04:43:08;100915.97;;;17.32;100.00
13068;BME280;6600;51.362;6.686;2023-05-22T04:45:34;100912.19;;;17.33;100.00
13068;BME280;6600;51.362;6.686;2023-05-22T04:47:59;100918.16;;;17.35;100.00
13068;BME280;6600;51.362;6.686;2023-05-22T04:50:26;100916.34;;;17.41;100.00
13068;BME280;6600;51.362;6.686;2023-05-22T04:52:54;100916.06;;;17.42;100.00
13068;BME280;6600;51.362;6.686;2023-05-22T04:55:19;100915.56;;;17.45;100.00
13068;BME280;6600;51.362;6.686;2023-05-22T04:57:46;100909.09;;;17.51;100.00
13068;BME280;6600;51.362;6.686;2023-05-22T05:00:13;100917.09;;;17.58;100.00
13068;BME280;6600;51.362;6.686;2023-05-22T05:02:39;100920.88;;;17.62;100.00
13068;BME280;6600;51.362;6.686;2023-05-22T05:05:06;100914.16;;;17.64;100.00
13068;BME280;6600;51.362;6.686;2023-05-22T05:07:31;100904.44;;;17.69;100.00
13068;BME280;6600;51.362;6.686;2023-05-22T05:09:56;100908.31;;;17.78;100.00
13068;BME280;6600;51.362;6.686;2023-05-22T05:12:22;100917.59;;;17.87;100.00
13068;BME280;6600;51.362;6.686;2023-05-22T05:14:47;100908.16;;;17.89;100.00
13068;BME280;6600;51.362;6.686;2023-05-22T05:17:12;100916.00;;;17.91;100.00
13068;BME280;6600;51.362;6.686;2023-05-22T05:19:38;100918.19;;;17.94;100.00
13068;BME280;6600;51.362;6.686;2023-05-22T05:22:03;100912.25;;;17.97;100.00
13068;BME280;6600;51.362;6.686;2023-05-22T05:24:29;100920.97;;;18.04;100.00
13068;BME280;6600;51.362;6.686;2023-05-22T05:26:54;100921.03;;;18.09;100.00
13068;BME280;6600;51.362;6.686;2023-05-22T05:29:19;100914.03;;;18.13;100.00
13068;BME280;6600;51.362;6.686;2023-05-22T05:31:45;100923.78;;;18.14;100.00
13068;BME280;6600;51.362;6.686;2023-05-22T05:34:10;100927.56;;;18.13;100.00
13068;BME280;6600;51.362;6.686;2023-05-22T05:36:37;100917.81;;;18.17;100.00
13068;BME280;6600;51.362;6.686;2023-05-22T05:39:02;100916.56;;;18.30;100.00
13068;BME280;6600;51.362;6.686;2023-05-22T05:41:28;100927.66;;;18.23;100.00
13068;BME280;6600;51.362;6.686;2023-05-22T05:43:53;100920.72;;;18.42;100.00
13068;BME280;6600;51.362;6.686;2023-05-22T05:46:21;100927.38;;;18.61;100.00
13068;BME280;6600;51.362;6.686;2023-05-22T05:48:46;100925.75;;;18.65;100.00
13068;BME280;6600;51.362;6.686;2023-05-22T05:51:12;100929.91;;;18.78;100.00
13068;BME280;6600;51.362;6.686;2023-05-22T05:53:37;100934.47;;;18.67;100.00
13068;BME280;6600;51.362;6.686;2023-05-22T05:56:05;100936.16;;;18.79;100.00
13068;BME280;6600;51.362;6.686;2023-05-22T05:58:31;100930.47;;;18.85;100.00
13068;BME280;6600;51.362;6.686;2023-05-22T06:00:56;100932.97;;;18.97;100.00
13068;BME280;6600;51.362;6.686;2023-05-22T06:03:21;100941.38;;;18.95;100.00
13068;BME280;6600;51.362;6.686;2023-05-22T06:05:49;100930.34;;;19.22;100.00
13068;BME280;6600;51.362;6.686;2023-05-22T06:08:15;100922.75;;;19.34;100.00
13068;BME280;6600;51.362;6.686;2023-05-22T06:10:40;100924.75;;;19.59;100.00
13068;BME280;6600;51.362;6.686;2023-05-22T06:13:05;100931.84;;;19.80;100.00
13068;BME280;6600;51.362;6.686;2023-05-22T06:15:31;100936.72;;;19.93;100.00
13068;BME280;6600;51.362;6.686;2023-05-22T06:17:56;100941.38;;;20.13;100.00
13068;BME280;6600;51.362;6.686;2023-05-22T06:20:22;100944.06;;;20.18;100.00
13068;BME280;6600;51.362;6.686;2023-05-22T06:22:49;100944.59;;;20.25;100.00
13068;BME280;6600;51.362;6.686;2023-05-22T06:25:15;100939.72;;;20.17;100.00
13068;BME280;6600;51.362;6.686;2023-05-22T06:27:40;100945.72;;;20.09;100.00
13068;BME280;6600;51.362;6.686;2023-05-22T06:30:07;100941.38;;;20.33;100.00
13068;BME280;6600;51.362;6.686;2023-05-22T06:32:32;100944.91;;;20.29;100.00
13068;BME280;6600;51.362;6.686;2023-05-22T06:34:58;100948.41;;;20.24;100.00
13068;BME280;6600;51.362;6.686;2023-05-22T06:37:23;100953.31;;;20.17;100.00
13068;BME280;6600;51.362;6.686;2023-05-22T06:39:48;100953.88;;;20.39;100.00
13068;BME280;6600;51.362;6.686;2023-05-22T06:42:14;100954.41;;;20.11;100.00
13068;BME280;6600;51.362;6.686;2023-05-22T06:44:39;100964.75;;;20.04;100.00
13068;BME280;6600;51.362;6.686;2023-05-22T06:47:04;100965.31;;;20.06;100.00
13068;BME280;6600;51.362;6.686;2023-05-22T06:49:30;100977.53;;;20.08;100.00
13068;BME280;6600;51.362;6.686;2023-05-22T06:51:55;100969.38;;;20.13;100.00
13068;BME280;6600;51.362;6.686;2023-05-22T06:54:21;100975.06;;;20.17;100.00
13068;BME280;6600;51.362;6.686;2023-05-22T06:56:46;100969.69;;;20.27;100.00
13068;BME280;6600;51.362;6.686;2023-05-22T06:59:11;100972.38;;;20.22;100.00
13068;BME280;6600;51.362;6.686;2023-05-22T07:01:37;100975.06;;;20.17;100.00
13068;BME280;6600;51.362;6.686;2023-05-22T07:04:03;100978.34;;;20.24;100.00
13068;BME280;6600;51.362;6.686;2023-05-22T07:06:33;100980.53;;;20.17;100.00
13068;BME280;6600;51.362;6.686;2023-05-22T07:09:03;100983.81;;;19.99;100.00
13068;BME280;6600;51.362;6.686;2023-05-22T07:11:29;100980.53;;;20.02;100.00
13068;BME280;6600;51.362;6.686;2023-05-22T07:13:55;100986.50;;;20.04;100.00
13068;BME280;6600;51.362;6.686;2023-05-22T07:16:21;100989.22;;;20.04;100.00
13068;BME280;6600;51.362;6.686;2023-05-22T07:18:46;100990.84;;;20.00;100.00
13068;BME280;6600;51.362;6.686;2023-05-22T07:21:12;100993.59;;;20.05;100.00
13068;BME280;6600;51.362;6.686;2023-05-22T07:23:37;100992.50;;;20.01;100.00
13068;BME280;6600;51.362;6.686;2023-05-22T07:26:02;100996.81;;;19.87;100.00
13068;BME280;6600;51.362;6.686;2023-05-22T07:28:28;100998.66;;;19.56;100.00
13068;BME280;6600;51.362;6.686;2023-05-22T07:30:53;100996.25;;;19.70;100.00
13068;BME280;6600;51.362;6.686;2023-05-22T07:33:19;101007.09;;;19.49;100.00
13068;BME280;6600;51.362;6.686;2023-05-22T07:35:44;101011.44;;;19.55;100.00
13068;BME280;6600;51.362;6.686;2023-05-22T07:38:10;101013.09;;;19.66;100.00
13068;BME280;6600;51.362;6.686;2023-05-22T07:40:35;101016.41;;;19.69;100.00
13068;BME280;6600;51.362;6.686;2023-05-22T07:43:01;101013.13;;;19.72;100.00
13068;BME280;6600;51.362;6.686;2023-05-22T07:45:26;101019.31;;;19.47;100.00
13068;BME280;6600;51.362;6.686;2023-05-22T07:47:51;101019.31;;;19.47;100.00
13068;BME280;6600;51.362;6.686;2023-05-22T07:50:17;101024.47;;;19.43;100.00
13068;BME280;6600;51.362;6.686;2023-05-22T07:52:43;101019.06;;;19.58;100.00
13068;BME280;6600;51.362;6.686;2023-05-22T07:55:08;101022.25;;;19.40;100.00
13068;BME280;6600;51.362;6.686;2023-05-22T07:57:34;101029.91;;;19.43;100.00
13068;BME280;6600;51.362;6.686;2023-05-22T08:00:01;101029.38;;;19.56;100.00
13068;BME280;6600;51.362;6.686;2023-05-22T08:02:30;101032.13;;;19.66;100.00
13068;BME280;6600;51.362;6.686;2023-05-22T08:04:57;101027.78;;;19.60;100.00
13068;BME280;6600;51.362;6.686;2023-05-22T08:07:22;101032.13;;;19.61;100.00
13068;BME280;6600;51.362;6.686;2023-05-22T08:09:48;101033.78;;;19.73;100.00
13068;BME280;6600;51.362;6.686;2023-05-22T08:12:13;101038.16;;;19.69;100.00
13068;BME280;6600;51.362;6.686;2023-05-22T08:14:38;101028.56;;;19.56;100.00
13068;BME280;6600;51.362;6.686;2023-05-22T08:17:04;101031.09;;;19.78;100.00
13068;BME280;6600;51.362;6.686;2023-05-22T08:19:29;101029.47;;;19.92;100.00
13068;BME280;6600;51.362;6.686;2023-05-22T08:21:55;101032.47;;;19.95;100.00
13068;BME280;6600;51.362;6.686;2023-05-22T08:24:24;101027.31;;;19.99;100.00
13068;BME280;6600;51.362;6.686;2023-05-22T08:26:53;101028.16;;;20.20;100.00
13068;BME280;6600;51.362;6.686;2023-05-22T08:29:19;101026.78;;;20.22;100.00
13068;BME280;6600;51.362;6.686;2023-05-22T08:31:45;101033.88;;;20.13;100.00
13068;BME280;6600;51.362;6.686;2023-05-22T08:34:10;101031.13;;;20.08;100.00
13068;BME280;6600;51.362;6.686;2023-05-22T08:36:35;101029.75;;;20.10;100.00
13068;BME280;6600;51.362;6.686;2023-05-22T08:39:01;101033.03;;;20.07;100.00
13068;BME280;6600;51.362;6.686;2023-05-22T08:41:28;101038.75;;;20.16;100.00
13068;BME280;6600;51.362;6.686;2023-05-22T08:43:53;101044.69;;;19.93;100.00
13068;BME280;6600;51.362;6.686;2023-05-22T08:46:20;101046.06;;;19.90;100.00
13068;BME280;6600;51.362;6.686;2023-05-22T08:48:50;101044.19;;;20.06;100.00
13068;BME280;6600;51.362;6.686;2023-05-22T08:51:18;101047.44;;;20.08;100.00
13068;BME280;6600;51.362;6.686;2023-05-22T08:53:44;101046.28;;;19.74;100.00
13068;BME280;6600;51.362;6.686;2023-05-22T08:56:12;101044.69;;;19.83;100.00
13068;BME280;6600;51.362;6.686;2023-05-22T08:58:38;101043.63;;;19.89;100.00
13068;BME280;6600;51.362;6.686;2023-05-22T09:01:04;101041.41;;;19.76;100.00
13068;BME280;6600;51.362;6.686;2023-05-22T09:03:34;101051.22;;;19.87;100.00
13068;BME280;6600;51.362;6.686;2023-05-22T09:06:01;101049.06;;;19.94;100.00
13068;BME280;6600;51.362;6.686;2023-05-22T09:08:27;101045.28;;;20.05;100.00
13068;BME280;6600;51.362;6.686;2023-05-22T09:10:53;101051.75;;;19.84;100.00
13068;BME280;6600;51.362;6.686;2023-05-22T09:13:29;101049.63;;;20.06;100.00
13068;BME280;6600;51.362;6.686;2023-05-22T09:15:59;101060.00;;;20.19;99.51
13068;BME280;6600;51.362;6.686;2023-05-22T09:18:31;101059.16;;;20.18;98.92
13068;BME280;6600;51.362;6.686;2023-05-22T09:20:57;101063.50;;;20.14;99.07
13068;BME280;6600;51.362;6.686;2023-05-22T09:23:22;101059.72;;;20.15;97.97
13068;BME280;6600;51.362;6.686;2023-05-22T09:25:53;101063.25;;;20.26;97.94
13068;BME280;6600;51.362;6.686;2023-05-22T09:28:19;101062.44;;;20.26;98.44
13068;BME280;6600;51.362;6.686;2023-05-22T09:30:52;101066.78;;;20.16;97.80
13068;BME280;6600;51.362;6.686;2023-05-22T09:33:18;101069.78;;;20.15;97.02
13068;BME280;6600;51.362;6.686;2023-05-22T09:35:51;101063.84;;;20.33;98.09
13068;BME280;6600;51.362;6.686;2023-05-22T09:38:17;101067.84;;;20.10;98.32
13068;BME280;6600;51.362;6.686;2023-05-22T09:40:42;101068.69;;;20.16;97.45
13068;BME280;6600;51.362;6.686;2023-05-22T09:43:11;101071.97;;;20.23;97.43
13068;BME280;6600;51.362;6.686;2023-05-22T09:45:37;101072.22;;;20.06;97.83
13068;BME280;6600;51.362;6.686;2023-05-22T09:48:04;101074.91;;;19.91;98.73
13068;BME280;6600;51.362;6.686;2023-05-22T09:50:30;101070.81;;;19.89;98.94
13068;BME280;6600;51.362;6.686;2023-05-22T09:52:55;101067.78;;;19.80;99.22
13068;BME280;6600;51.362;6.686;2023-05-22T09:55:21;101073.53;;;19.94;99.29
13068;BME280;6600;51.362;6.686;2023-05-22T09:57:50;101071.41;;;20.16;98.31
13068;BME280;6600;51.362;6.686;2023-05-22T10:00:17;101067.66;;;20.37;97.28
13068;BME280;6600;51.362;6.686;2023-05-22T10:02:49;101065.47;;;20.59;97.70
13068;BME280;6600;51.362;6.686;2023-05-22T10:05:17;101067.94;;;20.51;97.08
13068;BME280;6600;51.362;6.686;2023-05-22T10:07:48;101072.56;;;20.60;96.88
13068;BME280;6600;51.362;6.686;2023-05-22T10:10:17;101066.56;;;20.53;95.99
13068;BME280;6600;51.362;6.686;2023-05-22T10:12:49;101070.91;;;20.70;96.05
13068;BME280;6600;51.362;6.686;2023-05-22T10:15:16;101068.44;;;20.78;95.73
13068;BME280;6600;51.362;6.686;2023-05-22T10:17:43;101069.25;;;20.89;94.29
13068;BME280;6600;51.362;6.686;2023-05-22T10:20:09;101065.97;;;20.92;93.95
13068;BME280;6600;51.362;6.686;2023-05-22T10:22:38;101069.22;;;21.09;93.45
13068;BME280;6600;51.362;6.686;2023-05-22T10:25:04;101069.72;;;21.26;92.79
13068;BME280;6600;51.362;6.686;2023-05-22T10:27:30;101072.13;;;21.38;93.80
13068;BME280;6600;51.362;6.686;2023-05-22T10:30:23;101064.72;;;21.53;92.67
13068;BME280;6600;51.362;6.686;2023-05-22T10:33:04;101059.66;;;21.81;93.64
13068;BME280;6600;51.362;6.686;2023-05-22T10:35:37;101054.47;;;21.84;92.78
13068;BME280;6600;51.362;6.686;2023-05-22T10:40:48;101045.53;;;22.17;91.89
13068;BME280;6600;51.362;6.686;2023-05-22T10:43:14;101050.78;;;22.09;89.84
13068;BME280;6600;51.362;6.686;2023-05-22T10:45:40;101050.06;;;22.32;92.26
13068;BME280;6600;51.362;6.686;2023-05-22T10:48:07;101044.69;;;22.22;88.94
13068;BME280;6600;51.362;6.686;2023-05-22T10:50:34;101047.41;;;22.27;90.02
13068;BME280;6600;51.362;6.686;2023-05-22T10:53:23;101041.84;;;22.37;89.43
13068;BME280;6600;51.362;6.686;2023-05-22T10:55:56;101047.56;;;22.41;91.47
13068;BME280;6600;51.362;6.686;2023-05-22T10:58:27;101035.69;;;22.22;89.74
13068;BME280;6600;51.362;6.686;2023-05-22T11:03:58;101041.66;;;22.57;89.00
13068;BME280;6600;51.362;6.686;2023-05-22T11:08:55;101035.50;;;22.76;88.09
13068;BME280;6600;51.362;6.686;2023-05-22T11:11:27;101036.91;;;22.97;88.38
13068;BME280;6600;51.362;6.686;2023-05-22T11:13:52;101024.56;;;22.76;87.69
13068;BME280;6600;51.362;6.686;2023-05-22T11:16:30;101033.13;;;22.93;87.16
13068;BME280;6600;51.362;6.686;2023-05-22T11:19:05;101027.00;;;23.06;88.13
13068;BME280;6600;51.362;6.686;2023-05-22T11:21:41;101024.00;;;23.26;86.23
13068;BME280;6600;51.362;6.686;2023-05-22T11:24:08;101019.41;;;23.22;86.75
13068;BME280;6600;51.362;6.686;2023-05-22T11:26:33;101019.34;;;23.50;87.44
13068;BME280;6600;51.362;6.686;2023-05-22T11:28:58;101020.56;;;23.39;86.15
13068;BME280;6600;51.362;6.686;2023-05-22T11:31:24;101016.16;;;23.43;85.72
13068;BME280;6600;51.362;6.686;2023-05-22T11:33:52;101013.72;;;23.42;85.14
13068;BME280;6600;51.362;6.686;2023-05-22T11:36:17;101022.41;;;23.68;87.13
13068;BME280;6600;51.362;6.686;2023-05-22T11:38:42;101015.44;;;23.56;84.67
13068;BME280;6600;51.362;6.686;2023-05-22T11:41:09;101010.84;;;23.89;87.73
13068;BME280;6600;51.362;6.686;2023-05-22T11:43:35;101012.19;;;23.92;85.91
13068;BME280;6600;51.362;6.686;2023-05-22T11:46:10;101011.22;;;23.83;84.02
13068;BME280;6600;51.362;6.686;2023-05-22T11:48:39;101009.00;;;23.85;86.13
13068;BME280;6600;51.362;6.686;2023-05-22T11:51:05;101003.03;;;24.20;86.22
13068;BME280;6600;51.362;6.686;2023-05-22T11:53:31;101009.81;;;24.23;83.67
13068;BME280;6600;51.362;6.686;2023-05-22T11:56:01;101002.03;;;24.30;85.33
13068;BME280;6600;51.362;6.686;2023-05-22T11:58:27;100995.50;;;24.07;84.96
13068;BME280;6600;51.362;6.686;2023-05-22T12:00:57;101000.22;;;24.39;84.04
13068;BME280;6600;51.362;6.686;2023-05-22T12:03:22;100995.81;;;24.24;83.89
13068;BME280;6600;51.362;6.686;2023-05-22T12:05:49;100993.28;;;24.28;84.53
13068;BME280;6600;51.362;6.686;2023-05-22T12:08:15;100994.78;;;24.52;84.16
13068;BME280;6600;51.362;6.686;2023-05-22T12:10:48;100992.59;;;24.68;85.14
13068;BME280;6600;51.362;6.686;2023-05-22T12:13:13;100985.56;;;24.76;83.64
13068;BME280;6600;51.362;6.686;2023-05-22T12:15:39;100992.78;;;24.72;81.10
13068;BME280;6600;51.362;6.686;2023-05-22T12:18:08;100988.94;;;25.00;82.40
13068;BME280;6600;51.362;6.686;2023-05-22T12:20:33;100987.84;;;25.01;81.49
13068;BME280;6600;51.362;6.686;2023-05-22T12:22:59;100975.31;;;24.54;81.41
13068;BME280;6600;51.362;6.686;2023-05-22T12:25:32;100977.31;;;24.48;81.75
13068;BME280;6600;51.362;6.686;2023-05-22T12:27:59;100977.53;;;24.79;82.32
13068;BME280;6600;51.362;6.686;2023-05-22T12:30:25;100972.31;;;24.96;82.06
13068;BME280;6600;51.362;6.686;2023-05-22T12:32:50;100976.59;;;25.02;81.00
13068;BME280;6600;51.362;6.686;2023-05-22T12:35:16;100977.59;;;25.20;82.25
13068;BME280;6600;51.362;6.686;2023-05-22T12:37:50;100980.38;;;25.42;80.72
13068;BME280;6600;51.362;6.686;2023-05-22T12:40:15;100980.22;;;25.25;81.25
13068;BME280;6600;51.362;6.686;2023-05-22T12:42:41;100982.13;;;25.38;79.50
13068;BME280;6600;51.362;6.686;2023-05-22T12:45:06;100977.38;;;25.30;79.39
13068;BME280;6600;51.362;6.686;2023-05-22T12:47:32;100979.59;;;25.14;78.94
13068;BME280;6600;51.362;6.686;2023-05-22T12:49:57;100974.28;;;25.45;78.60
13068;BME280;6600;51.362;6.686;2023-05-22T12:52:22;100975.56;;;25.12;78.50
13068;BME280;6600;51.362;6.686;2023-05-22T12:54:49;100966.00;;;25.23;80.61
13068;BME280;6600;51.362;6.686;2023-05-22T12:57:14;100965.88;;;25.28;80.09
13068;BME280;6600;51.362;6.686;2023-05-22T12:59:40;100962.31;;;25.28;80.36
13068;BME280;6600;51.362;6.686;2023-05-22T13:02:08;100973.31;;;25.14;80.13
13068;BME280;6600;51.362;6.686;2023-05-22T13:04:33;100961.50;;;25.27;79.07
13068;BME280;6600;51.362;6.686;2023-05-22T13:06:59;100958.06;;;25.22;78.38
13068;BME280;6600;51.362;6.686;2023-05-22T13:09:24;100960.88;;;25.57;79.59
13068;BME280;6600;51.362;6.686;2023-05-22T13:11:50;100967.00;;;25.54;79.83
13068;BME280;6600;51.362;6.686;2023-05-22T13:14:15;100968.59;;;25.55;79.39